^^
Meteo Knjazevac Station Historical Data
Daily Summary for June 20, 2021 Units:  Metric    English   Both
Daily Weekly Monthly Yearly Custom
  High: Low: Average:
Temperature: 26.2 °C 12.6 °C 16 °C
Dew Point: 19.3 °C 10.8 °C 14.2 °C
Humidity: 99% 63% 90%
Wind Speed: 14.5km/h 0km/h 5.6km/h
Wind Gust: 30.6km/h - -
Wind- - SW
Pressure: 1022.6 hPa 1013.1 hPa -
Precipitation: 2.03 mm    
Historical Graphs
 
 
Tabular Data for June 20, 2021
Time Temperature Dew Point Pressure Wind Wind Speed Wind Gust Humidity Rainfall Rate (Hourly) solar Conditions
00:00 16.2 °C 14.6 °C 1015.8 hPa SSE 3.2 km/h 11.3 km/h 90% 0 mm 0 W/m2
00:10 16.3 °C 14.6 °C 1015.8 hPa SE 3.2 km/h 17.7 km/h 90% 0 mm 0 W/m2
00:20 16.2 °C 14.6 °C 1015.5 hPa ENE 3.2 km/h 8 km/h 90% 0 mm 0 W/m2
00:30 16.1 °C 14.6 °C 1015.8 hPa SE 4.8 km/h 11.3 km/h 91% 0 mm 0 W/m2
00:40 15.8 °C 14.3 °C 1015.8 hPa SW 8 km/h 11.3 km/h 91% 0 mm 0 W/m2
00:50 15.3 °C 14.2 °C 1015.8 hPa WSW 4.8 km/h 11.3 km/h 93% 0 mm 0 W/m2
01:00 15.2 °C 14.1 °C 1015.8 hPa WSW 3.2 km/h 8 km/h 93% 0 mm 0 W/m2
01:10 15 °C 14.1 °C 1015.5 hPa WSW 1.6 km/h 4.8 km/h 94% 0 mm 0 W/m2
01:20 14.9 °C 13.9 °C 1015.8 hPa West 3.2 km/h 4.8 km/h 94% 0 mm 0 W/m2
01:30 14.7 °C 13.7 °C 1015.5 hPa Calm   4.8 km/h 94% 0 mm 0 W/m2
01:40 14.7 °C 13.7 °C 1015.5 hPa NW 3.2 km/h 6.4 km/h 94% 0 mm 0 W/m2
01:50 14.4 °C 13.6 °C 1015.5 hPa West 4.8 km/h 6.4 km/h 95% 0 mm 0 W/m2
02:00 14.2 °C 13.4 °C 1015.5 hPa WNW 1.6 km/h 6.4 km/h 95% 0 mm 0 W/m2
02:10 14.2 °C 13.4 °C 1015.5 hPa West 3.2 km/h 6.4 km/h 95% 0 mm 0 W/m2
02:20 14 °C 13.2 °C 1015.1 hPa West 3.2 km/h 6.4 km/h 95% 0 mm 0 W/m2
02:30 13.8 °C 13 °C 1015.1 hPa West 4.8 km/h 6.4 km/h 95% 0 mm 0 W/m2
02:40 13.8 °C 13.2 °C 1015.1 hPa West 3.2 km/h 8 km/h 96% 0 mm 0 W/m2
02:50 13.6 °C 13 °C 1014.8 hPa West 4.8 km/h 9.7 km/h 96% 0 mm 0 W/m2
03:00 13.5 °C 12.9 °C 1014.8 hPa WNW 1.6 km/h 4.8 km/h 96% 0 mm 0 W/m2
03:10 13.4 °C 12.8 °C 1014.8 hPa WSW 1.6 km/h 4.8 km/h 96% 0 mm 0 W/m2
03:20 13.2 °C 12.6 °C 1014.8 hPa West 3.2 km/h 9.7 km/h 96% 0 mm 0 W/m2
03:30 13.1 °C 12.6 °C 1014.8 hPa West 4.8 km/h 9.7 km/h 97% 0 mm 0 W/m2
03:40 13 °C 12.7 °C 1014.8 hPa West 4.8 km/h 8 km/h 98% 0 mm 0 W/m2
03:50 12.9 °C 12.6 °C 1014.8 hPa West 3.2 km/h 8 km/h 98% 0 mm 0 W/m2
04:00 12.8 °C 12.5 °C 1014.8 hPa WNW 3.2 km/h 4.8 km/h 98% 0 mm 0 W/m2
04:10 12.9 °C 12.7 °C 1014.4 hPa WNW 3.2 km/h 9.7 km/h 99% 0 mm 0 W/m2
04:20 12.9 °C 12.7 °C 1014.4 hPa WSW 3.2 km/h 8 km/h 99% 0 mm 0 W/m2
04:30 12.8 °C 12.7 °C 1014.4 hPa West 4.8 km/h 11.3 km/h 99% 0 mm 0 W/m2
04:40 12.8 °C 12.7 °C 1014.4 hPa West 4.8 km/h 9.7 km/h 99% 0 mm 0 W/m2
04:50 12.8 °C 12.7 °C 1014.4 hPa WSW 4.8 km/h 8 km/h 99% 0 mm 0 W/m2
05:00 12.7 °C 12.6 °C 1014.4 hPa WSW 4.8 km/h 8 km/h 99% 0 mm 0 W/m2
05:10 12.6 °C 12.4 °C 1014.4 hPa West 3.2 km/h 8 km/h 99% 0 mm 0 W/m2
05:20 12.7 °C 12.6 °C 1014.4 hPa WNW 4.8 km/h 11.3 km/h 99% 0 mm 0 W/m2
05:30 12.9 °C 12.7 °C 1014.4 hPa West 3.2 km/h 8 km/h 99% 0 mm 0 W/m2
05:40 12.9 °C 12.7 °C 1014.4 hPa SW 3.2 km/h 4.8 km/h 99% 0 mm 0 W/m2
05:50 12.8 °C 12.7 °C 1014.4 hPa WSW 3.2 km/h 8 km/h 99% 0 mm 0 W/m2
06:00 12.8 °C 12.7 °C 1014.4 hPa West 3.2 km/h 8 km/h 99% 0 mm 0 W/m2
06:10 12.8 °C 12.7 °C 1014.8 hPa West 4.8 km/h 8 km/h 99% 0 mm 0 W/m2
06:20 12.8 °C 12.6 °C 1014.8 hPa West 3.2 km/h 8 km/h 99% 0 mm 5 W/m2
06:30 12.7 °C 12.6 °C 1014.8 hPa WSW 3.2 km/h 6.4 km/h 99% 0 mm 13 W/m2
06:40 12.7 °C 12.6 °C 1014.8 hPa WSW 1.6 km/h 4.8 km/h 99% 0 mm 22 W/m2
06:50 12.8 °C 12.7 °C 1014.8 hPa West 1.6 km/h 4.8 km/h 99% 0 mm 40 W/m2
07:00 13 °C 12.8 °C 1014.8 hPa NW 1.6 km/h 4.8 km/h 99% 0 mm 52 W/m2
07:10 13.2 °C 13.1 °C 1014.8 hPa NW 1.6 km/h 3.2 km/h 99% 0 mm 59 W/m2
07:20 13.2 °C 13.1 °C 1014.8 hPa Calm   3.2 km/h 99% 0 mm 51 W/m2
07:30 13.4 °C 13.2 °C 1014.8 hPa Calm   4.8 km/h 99% 0 mm 60 W/m2
07:40 13.5 °C 13.3 °C 1014.8 hPa NW 1.6 km/h 4.8 km/h 99% 0 mm 143 W/m2
07:50 13.7 °C 13.6 °C 1014.4 hPa WSW 3.2 km/h 6.4 km/h 99% 0 mm 76 W/m2
08:00 13.9 °C 13.7 °C 1014.8 hPa WSW 4.8 km/h 11.3 km/h 99% 0 mm 121 W/m2
08:10 14.2 °C 14.1 °C 1014.4 hPa WSW 3.2 km/h 8 km/h 99% 0 mm 115 W/m2
08:20 14.5 °C 14.3 °C 1014.4 hPa SW 3.2 km/h 4.8 km/h 99% 0 mm 143 W/m2
08:30 14.8 °C 14.7 °C 1014.4 hPa WSW 1.6 km/h 4.8 km/h 99% 0 mm 221 W/m2
08:40 15.4 °C 15.3 °C 1014.4 hPa West 1.6 km/h 6.4 km/h 99% 0 mm 378 W/m2
08:50 16.4 °C 16.3 °C 1014.4 hPa West 3.2 km/h 8 km/h 99% 0 mm 407 W/m2
09:00 17.4 °C 17.1 °C 1014.1 hPa West 3.2 km/h 4.8 km/h 98% 0 mm 428 W/m2
09:10 18.2 °C 17.6 °C 1014.4 hPa West 1.6 km/h 8 km/h 96% 0 mm 461 W/m2
09:20 19.2 °C 18.3 °C 1014.1 hPa SW 1.6 km/h 6.4 km/h 94% 0 mm 487 W/m2
09:30 20.3 °C 18.2 °C 1014.1 hPa SSE 1.6 km/h 11.3 km/h 88% 0 mm 512 W/m2
09:40 21.2 °C 18.3 °C 1014.1 hPa SSE 4.8 km/h 11.3 km/h 84% 0 mm 537 W/m2
09:50 21.9 °C 18.1 °C 1014.1 hPa SE 3.2 km/h 14.5 km/h 79% 0 mm 227 W/m2
10:00 22.6 °C 18.6 °C 1014.1 hPa SSE 3.2 km/h 11.3 km/h 78% 0 mm 403 W/m2
10:10 23.4 °C 18.8 °C 1014.1 hPa SSE 4.8 km/h 11.3 km/h 75% 0 mm 602 W/m2
10:20 23.7 °C 18.6 °C 1014.1 hPa South 3.2 km/h 14.5 km/h 73% 0 mm 144 W/m2
10:30 23.4 °C 18.1 °C 1014.1 hPa SW 9.7 km/h 16.1 km/h 72% 0 mm 173 W/m2
10:40 23.2 °C 17.9 °C 1014.1 hPa SW 9.7 km/h 16.1 km/h 72% 0 mm 202 W/m2
10:50 23.1 °C 17.8 °C 1014.1 hPa SW 8 km/h 16.1 km/h 72% 0 mm 155 W/m2
11:00 23.1 °C 17.8 °C 1013.8 hPa SW 4.8 km/h 16.1 km/h 72% 0 mm 110 W/m2
11:10 23.1 °C 18 °C 1013.8 hPa WSW 1.6 km/h 9.7 km/h 73% 0 mm 141 W/m2
11:20 23.2 °C 18.3 °C 1013.8 hPa North 1.6 km/h 8 km/h 74% 0 mm 445 W/m2
11:30 23.5 °C 18.4 °C 1013.8 hPa NNE 3.2 km/h 9.7 km/h 73% 0 mm 318 W/m2
11:40 24 °C 18.7 °C 1013.4 hPa NNE 9.7 km/h 11.3 km/h 72% 0 mm 251 W/m2
11:50 24.7 °C 18.8 °C 1013.4 hPa NNE 9.7 km/h 19.3 km/h 70% 0 mm 731 W/m2
12:00 25.7 °C 19.3 °C 1013.4 hPa NE 8 km/h 19.3 km/h 68% 0 mm 735 W/m2
12:10 26.2 °C 18.6 °C 1013.4 hPa SE 4.8 km/h 14.5 km/h 63% 0 mm 369 W/m2
12:20 25.5 °C 17.9 °C 1013.1 hPa East 9.7 km/h 25.7 km/h 63% 0 mm 104 W/m2
13:00 23.4 °C 16.9 °C 1013.8 hPa ENE 8 km/h 19.3 km/h 67% 0 mm 172 W/m2
13:10 21.6 °C 16.9 °C 1014.1 hPa NNE 11.3 km/h 30.6 km/h 75% 0 mm 12 W/m2
13:20 20.1 °C 16.5 °C 1014.8 hPa North 4.8 km/h 29 km/h 80% 0.51 mm 32 W/m2
13:30 19.2 °C 16.3 °C 1014.8 hPa North 12.9 km/h 19.3 km/h 83% 0.25 mm 118 W/m2
13:40 18.6 °C 16.2 °C 1015.1 hPa North 3.2 km/h 16.1 km/h 86% 0 mm 59 W/m2
13:50 18.2 °C 16.2 °C 1015.5 hPa NNW 1.6 km/h 11.3 km/h 88% 0.25 mm 43 W/m2
14:00 17.9 °C 16.2 °C 1015.5 hPa North 3.2 km/h 20.9 km/h 90% 0.51 mm 40 W/m2
14:10 17.6 °C 16.1 °C 1015.8 hPa NNW 1.6 km/h 16.1 km/h 91% 0 mm 228 W/m2
14:20 17.6 °C 16.1 °C 1015.8 hPa NNW 1.6 km/h 12.9 km/h 91% 0 mm 204 W/m2
14:30 17.6 °C 16.1 °C 1015.8 hPa NNW 1.6 km/h 12.9 km/h 91% 0 mm 174 W/m2
14:40 17.6 °C 16.3 °C 1015.8 hPa North 4.8 km/h 9.7 km/h 92% 0 mm 226 W/m2
14:50 17.7 °C 16.2 °C 1016.1 hPa Calm   9.7 km/h 91% 0 mm 142 W/m2
15:00 17.7 °C 16.1 °C 1016.1 hPa NNE 1.6 km/h 6.4 km/h 90% 0 mm 130 W/m2
15:10 17.6 °C 15.9 °C 1016.1 hPa East 3.2 km/h 4.8 km/h 90% 0 mm 65 W/m2
15:20 17.5 °C 16 °C 1016.1 hPa SSE 4.8 km/h 6.4 km/h 91% 0 mm 91 W/m2
15:30 17.4 °C 15.9 °C 1016.5 hPa Calm   4.8 km/h 91% 0 mm 22 W/m2
15:40 17.4 °C 16.3 °C 1016.5 hPa West 1.6 km/h 3.2 km/h 93% 0 mm 43 W/m2
15:50 17.4 °C 16.3 °C 1016.8 hPa WSW 3.2 km/h 8 km/h 93% 0 mm 20 W/m2
16:00 17.3 °C 16.2 °C 1016.8 hPa WSW 1.6 km/h 6.4 km/h 93% 0 mm 22 W/m2
16:10 17.3 °C 16.3 °C 1017.2 hPa SW 3.2 km/h 4.8 km/h 94% 0 mm 45 W/m2
16:20 17.3 °C 15.4 °C 1016.8 hPa WSW 14.5 km/h 20.9 km/h 89% 0 mm 52 W/m2
16:30 17.2 °C 15.2 °C 1017.2 hPa West 8 km/h 19.3 km/h 88% 0 mm 56 W/m2
16:40 17.1 °C 14.7 °C 1017.2 hPa WSW 9.7 km/h 20.9 km/h 86% 0 mm 37 W/m2
16:50 17 °C 14.7 °C 1017.2 hPa West 4.8 km/h 20.9 km/h 86% 0 mm 41 W/m2
17:00 16.9 °C 14.6 °C 1017.8 hPa West 11.3 km/h 17.7 km/h 86% 0 mm 61 W/m2
17:10 16.8 °C 14.4 °C 1017.8 hPa WNW 12.9 km/h 22.5 km/h 86% 0 mm 26 W/m2
17:20 16.5 °C 13.9 °C 1018.2 hPa West 8 km/h 24.1 km/h 85% 0 mm 21 W/m2
17:30 16.2 °C 13.8 °C 1018.5 hPa WSW 12.9 km/h 20.9 km/h 86% 0 mm 20 W/m2
17:40 15.8 °C 13.8 °C 1018.5 hPa West 11.3 km/h 24.1 km/h 88% 0 mm 22 W/m2
17:50 15.5 °C 13.5 °C 1018.5 hPa West 14.5 km/h 22.5 km/h 88% 0 mm 20 W/m2
18:00 15.3 °C 13.3 °C 1018.5 hPa West 12.9 km/h 24.1 km/h 88% 0 mm 13 W/m2
18:10 15.2 °C 13.2 °C 1018.5 hPa West 14.5 km/h 25.7 km/h 88% 0 mm 10 W/m2
18:20 15.1 °C 13.1 °C 1018.8 hPa West 14.5 km/h 22.5 km/h 88% 0 mm 5 W/m2
18:30 15 °C 13 °C 1019.2 hPa West 11.3 km/h 22.5 km/h 88% 0 mm 1 W/m2
18:40 14.9 °C 12.9 °C 1019.2 hPa West 9.7 km/h 20.9 km/h 88% 0 mm 0 W/m2
18:50 14.8 °C 12.8 °C 1019.5 hPa West 11.3 km/h 20.9 km/h 88% 0 mm 0 W/m2
19:00 14.6 °C 12.8 °C 1019.5 hPa WSW 11.3 km/h 24.1 km/h 89% 0.25 mm 0 W/m2
19:10 14.4 °C 12.8 °C 1019.9 hPa WSW 4.8 km/h 19.3 km/h 90% 0.25 mm 0 W/m2
19:20 14.3 °C 12.7 °C 1019.9 hPa SW 9.7 km/h 12.9 km/h 90% 0 mm 0 W/m2
19:30 14.1 °C 12.7 °C 1019.9 hPa WSW 9.7 km/h 14.5 km/h 91% 0 mm 0 W/m2
19:40 14.1 °C 12.5 °C 1020.2 hPa West 12.9 km/h 24.1 km/h 90% 0 mm 0 W/m2
19:50 14.1 °C 12.4 °C 1020.5 hPa WSW 9.7 km/h 22.5 km/h 90% 0 mm 0 W/m2
20:00 14 °C 12.4 °C 1020.5 hPa WSW 9.7 km/h 19.3 km/h 90% 0 mm 0 W/m2
20:10 13.9 °C 12.3 °C 1020.9 hPa WSW 11.3 km/h 17.7 km/h 90% 0 mm 0 W/m2
20:20 13.8 °C 12.3 °C 1020.9 hPa WSW 8 km/h 19.3 km/h 91% 0 mm 0 W/m2
20:30 13.7 °C 12.3 °C 1021.2 hPa WSW 11.3 km/h 19.3 km/h 91% 0 mm 0 W/m2
20:40 13.6 °C 12.2 °C 1021.6 hPa WSW 8 km/h 17.7 km/h 91% 0 mm 0 W/m2
20:50 13.6 °C 12.2 °C 1021.6 hPa SW 4.8 km/h 12.9 km/h 91% 0 mm 0 W/m2
21:00 13.5 °C 12.1 °C 1021.6 hPa WSW 8 km/h 14.5 km/h 91% 0 mm 0 W/m2
21:10 13.5 °C 12.1 °C 1021.6 hPa WSW 3.2 km/h 12.9 km/h 91% 0 mm 0 W/m2
21:20 13.5 °C 11.9 °C 1021.6 hPa SW 8 km/h 11.3 km/h 90% 0 mm 0 W/m2
21:30 13.5 °C 11.9 °C 1021.6 hPa SW 8 km/h 12.9 km/h 90% 0 mm 0 W/m2
21:40 13.5 °C 11.7 °C 1021.9 hPa SW 8 km/h 12.9 km/h 89% 0 mm 0 W/m2
21:50 13.6 °C 11.8 °C 1021.9 hPa WSW 3.2 km/h 11.3 km/h 89% 0 mm 0 W/m2
22:00 13.5 °C 11.7 °C 1021.9 hPa SW 4.8 km/h 12.9 km/h 89% 0 mm 0 W/m2
22:10 13.5 °C 11.6 °C 1022.2 hPa WSW 11.3 km/h 19.3 km/h 88% 0 mm 0 W/m2
22:20 13.4 °C 11.6 °C 1022.2 hPa WSW 8 km/h 14.5 km/h 89% 0 mm 0 W/m2
22:30 13.4 °C 11.6 °C 1022.2 hPa WSW 9.7 km/h 16.1 km/h 89% 0 mm 0 W/m2
22:40 13.3 °C 11 °C 1022.6 hPa WSW 11.3 km/h 20.9 km/h 86% 0 mm 0 W/m2
22:50 13.2 °C 10.9 °C 1022.6 hPa WSW 9.7 km/h 20.9 km/h 86% 0 mm 0 W/m2
23:00 13.2 °C 10.9 °C 1022.2 hPa WSW 9.7 km/h 19.3 km/h 86% 0 mm 0 W/m2
23:10 13.1 °C 10.8 °C 1022.6 hPa West 12.9 km/h 19.3 km/h 86% 0 mm 0 W/m2
23:20 13.1 °C 10.8 °C 1022.6 hPa West 9.7 km/h 19.3 km/h 86% 0 mm 0 W/m2
23:30 13.1 °C 10.8 °C 1022.6 hPa West 12.9 km/h 20.9 km/h 86% 0 mm 0 W/m2
23:40 13 °C 11.1 °C 1022.6 hPa West 9.7 km/h 20.9 km/h 88% 0 mm 0 W/m2
23:50 12.9 °C 10.9 °C 1022.6 hPa West 8 km/h 12.9 km/h 88% 0 mm 0 W/m2
Knjazevac, Serbia
Compliments of Weather Underground - 2 mb